createdAt,value
2022-12-20T00:01:46.292Z,57.00
2022-12-20T00:04:50.781Z,56.77
2022-12-20T00:07:54.715Z,59.39
2022-12-20T00:10:58.547Z,58.49
2022-12-20T00:14:02.652Z,57.44
2022-12-20T00:17:06.622Z,56.71
2022-12-20T00:20:10.762Z,57.48
2022-12-20T00:23:14.488Z,56.90
2022-12-20T00:26:18.627Z,56.43
2022-12-20T00:29:22.609Z,57.44
2022-12-20T00:32:26.901Z,57.88
2022-12-20T00:35:30.836Z,59.49
2022-12-20T00:38:34.752Z,60.28
2022-12-20T00:41:38.556Z,58.63
2022-12-20T00:44:42.579Z,58.68
2022-12-20T00:47:46.657Z,58.51
2022-12-20T00:50:50.325Z,58.03
2022-12-20T00:53:54.212Z,58.65
2022-12-20T00:56:58.302Z,58.69
2022-12-20T01:00:02.237Z,58.49
2022-12-20T01:03:06.281Z,57.70
2022-12-20T01:06:09.794Z,57.51
2022-12-20T01:09:13.757Z,57.03
2022-12-20T01:12:17.847Z,57.59
2022-12-20T01:15:21.991Z,56.46
2022-12-20T01:18:25.823Z,56.64
2022-12-20T01:21:29.994Z,56.68
2022-12-20T01:24:34.077Z,56.88
2022-12-20T01:27:38.524Z,57.69
2022-12-20T01:30:42.538Z,56.79
2022-12-20T01:33:46.360Z,57.26
2022-12-20T01:36:50.347Z,57.88
2022-12-20T01:39:54.621Z,56.03
2022-12-20T01:42:58.881Z,55.63
2022-12-20T01:46:02.981Z,55.61
2022-12-20T01:49:06.760Z,54.87
2022-12-20T01:52:10.782Z,55.10
2022-12-20T01:55:14.982Z,55.83
2022-12-20T01:58:19.088Z,54.02
2022-12-20T02:01:23.179Z,53.53
2022-12-20T02:04:27.351Z,53.36
2022-12-20T02:07:31.272Z,53.02
2022-12-20T02:10:35.324Z,53.14
2022-12-20T02:13:39.211Z,52.64
2022-12-20T02:16:43.066Z,52.78
2022-12-20T02:19:47.339Z,52.24
2022-12-20T02:22:51.409Z,52.64
2022-12-20T02:25:55.510Z,52.94
2022-12-20T02:28:59.557Z,53.20
2022-12-20T02:32:03.705Z,53.79
2022-12-20T02:35:07.750Z,55.42
2022-12-20T02:38:11.872Z,55.19
2022-12-20T02:41:15.555Z,55.44
2022-12-20T02:44:19.484Z,54.57
2022-12-20T02:47:23.467Z,54.83
2022-12-20T02:50:27.565Z,54.98
2022-12-20T02:53:31.579Z,55.27
2022-12-20T02:56:35.400Z,55.72
2022-12-20T02:59:39.351Z,55.05
2022-12-20T03:02:43.757Z,55.71
2022-12-20T03:05:47.690Z,56.45
2022-12-20T03:08:51.680Z,55.53
2022-12-20T03:11:55.654Z,55.81
2022-12-20T03:14:59.740Z,56.59
2022-12-20T03:18:03.890Z,57.29
2022-12-20T03:21:08.094Z,57.05
2022-12-20T03:24:11.991Z,56.92
2022-12-20T03:27:15.870Z,57.86
2022-12-20T03:30:19.667Z,58.80
2022-12-20T03:33:23.824Z,60.46
2022-12-20T03:36:27.675Z,60.68
2022-12-20T03:39:31.560Z,59.13
2022-12-20T03:42:35.555Z,59.94
2022-12-20T03:45:39.873Z,59.63
2022-12-20T03:48:43.757Z,59.48
2022-12-20T03:51:47.913Z,60.20
2022-12-20T03:54:51.888Z,61.93
2022-12-20T03:57:55.572Z,61.04
2022-12-20T04:00:59.521Z,60.64
2022-12-20T04:04:03.405Z,59.89
2022-12-20T04:07:07.407Z,60.99
2022-12-20T04:10:11.560Z,61.27
2022-12-20T04:13:15.515Z,61.69
2022-12-20T04:16:19.530Z,60.48
2022-12-20T04:19:23.243Z,60.51
2022-12-20T04:22:27.395Z,60.54
2022-12-20T04:25:31.723Z,60.04
2022-12-20T04:28:35.293Z,59.91
2022-12-20T04:31:39.165Z,61.40
2022-12-20T04:34:43.143Z,60.78
2022-12-20T04:37:47.316Z,60.89
2022-12-20T04:40:51.397Z,61.87
2022-12-20T04:43:55.317Z,62.46
2022-12-20T04:46:59.278Z,61.95
2022-12-20T04:50:03.342Z,61.52
2022-12-20T04:53:07.624Z,61.34
2022-12-20T04:56:11.624Z,63.70
2022-12-20T04:59:15.417Z,63.21
2022-12-20T05:02:19.479Z,62.10
2022-12-20T05:05:23.266Z,62.75
2022-12-20T05:08:27.320Z,62.33
2022-12-20T05:11:31.809Z,62.90
2022-12-20T05:14:35.458Z,63.12
2022-12-20T05:17:39.417Z,63.47
2022-12-20T05:20:43.567Z,63.22
2022-12-20T05:23:47.430Z,62.37
2022-12-20T05:26:51.301Z,62.10
2022-12-20T05:29:55.333Z,62.13
2022-12-20T05:32:59.209Z,63.21
2022-12-20T05:36:03.273Z,63.17
2022-12-20T05:39:07.466Z,62.78
2022-12-20T05:42:11.773Z,61.68
2022-12-20T05:45:15.383Z,61.38
2022-12-20T05:48:19.454Z,61.36
2022-12-20T05:51:23.536Z,63.52
2022-12-20T05:54:27.348Z,63.30
2022-12-20T05:57:31.156Z,62.19
2022-12-20T06:00:35.259Z,61.53
2022-12-20T06:03:39.541Z,62.40
2022-12-20T06:06:43.532Z,62.63
2022-12-20T06:09:47.484Z,62.78
2022-12-20T06:12:51.611Z,63.33
2022-12-20T06:15:55.735Z,64.74
2022-12-20T06:18:59.597Z,62.15
2022-12-20T06:22:03.499Z,61.67
2022-12-20T06:25:07.429Z,60.90
2022-12-20T06:28:11.626Z,60.96
2022-12-20T06:31:15.703Z,61.20
2022-12-20T06:34:19.603Z,61.08
2022-12-20T06:37:23.583Z,61.06
2022-12-20T06:40:27.574Z,60.84
2022-12-20T06:43:31.809Z,60.37
2022-12-20T06:46:35.747Z,59.92
2022-12-20T06:49:39.726Z,62.23
2022-12-20T06:52:43.568Z,64.35
2022-12-20T06:55:47.532Z,64.35
2022-12-20T06:58:51.760Z,64.20
2022-12-20T07:01:56.047Z,64.25
2022-12-20T07:05:00.325Z,63.09
2022-12-20T07:08:04.365Z,65.28
2022-12-20T07:11:08.141Z,64.73
2022-12-20T07:14:12.363Z,63.96
2022-12-20T07:17:16.191Z,63.01
2022-12-20T07:20:21.517Z,62.11
2022-12-20T07:23:25.704Z,61.73
2022-12-20T07:26:30.323Z,61.88
2022-12-20T07:29:34.306Z,61.48
2022-12-20T07:32:38.285Z,61.81
2022-12-20T07:35:41.919Z,62.56
2022-12-20T07:38:46.180Z,62.85
2022-12-20T07:41:50.138Z,62.53
2022-12-20T07:44:54.228Z,63.19
2022-12-20T07:48:03.270Z,63.16
2022-12-20T07:51:10.890Z,62.24
2022-12-20T07:54:14.844Z,62.14
2022-12-20T07:57:19.688Z,62.54
2022-12-20T08:00:23.940Z,63.24
2022-12-20T08:03:28.287Z,62.74
2022-12-20T08:06:32.134Z,62.17
2022-12-20T08:09:36.344Z,62.05
2022-12-20T08:12:40.439Z,61.14
2022-12-20T08:15:44.467Z,61.45
2022-12-20T08:18:48.603Z,61.55
2022-12-20T08:21:52.639Z,61.59
2022-12-20T08:24:56.767Z,59.96
2022-12-20T08:28:00.730Z,60.23
2022-12-20T08:31:04.901Z,59.89
2022-12-20T08:34:08.875Z,59.79
2022-12-20T08:37:15.148Z,60.21
2022-12-20T08:40:19.237Z,60.14
2022-12-20T08:43:23.357Z,59.03
2022-12-20T08:46:27.313Z,58.91
2022-12-20T08:49:31.404Z,59.88
2022-12-20T08:52:35.373Z,58.95
2022-12-20T08:55:39.225Z,59.82
2022-12-20T08:58:43.337Z,59.62
2022-12-20T09:01:47.635Z,58.21
2022-12-20T09:04:51.628Z,59.13
2022-12-20T09:07:55.195Z,58.26
2022-12-20T09:10:59.147Z,57.20
2022-12-20T09:14:03.183Z,57.63
2022-12-20T09:17:07.317Z,59.02
2022-12-20T09:20:11.524Z,58.83
2022-12-20T09:23:15.526Z,59.05
2022-12-20T09:26:19.458Z,60.15
2022-12-20T09:29:29.615Z,59.18
2022-12-20T09:32:37.741Z,60.41
2022-12-20T09:35:41.683Z,59.13
2022-12-20T09:38:46.266Z,58.11
2022-12-20T09:41:49.948Z,56.25
2022-12-20T09:44:53.939Z,55.78
2022-12-20T09:47:57.804Z,57.13
2022-12-20T09:51:01.881Z,57.72
2022-12-20T09:54:05.960Z,57.91
2022-12-20T09:57:09.874Z,57.96
2022-12-20T10:00:13.895Z,58.68
2022-12-20T10:03:18.199Z,57.89
2022-12-20T10:06:22.164Z,57.86
2022-12-20T10:09:25.820Z,58.36
2022-12-20T10:12:29.719Z,57.65
2022-12-20T10:15:33.841Z,57.72
2022-12-20T10:18:37.779Z,57.49
2022-12-20T10:21:42.182Z,55.59
2022-12-20T10:24:45.923Z,55.72
2022-12-20T10:27:49.588Z,54.56
2022-12-20T10:30:53.578Z,54.09
2022-12-20T10:33:57.514Z,53.59
2022-12-20T10:37:01.596Z,53.34
2022-12-20T10:40:07.783Z,53.88
2022-12-20T10:43:11.891Z,52.91
2022-12-20T10:46:15.873Z,52.03
2022-12-20T10:49:20.035Z,51.65
2022-12-20T10:52:23.940Z,52.27
2022-12-20T10:55:27.863Z,50.28
2022-12-20T10:58:31.904Z,50.62
2022-12-20T11:01:36.208Z,51.06
2022-12-20T11:04:40.122Z,51.87
2022-12-20T11:08:08.531Z,52.53
2022-12-20T11:11:08.374Z,52.39
2022-12-20T11:14:12.233Z,52.63
2022-12-20T11:17:16.236Z,51.33
2022-12-20T11:20:20.371Z,50.43
2022-12-20T11:23:24.517Z,50.10
2022-12-20T11:26:28.228Z,50.26
2022-12-20T11:29:32.125Z,50.73
2022-12-20T11:32:36.265Z,51.13
2022-12-20T11:35:40.300Z,53.02
2022-12-20T11:38:44.189Z,53.25
2022-12-20T11:41:48.279Z,54.47
2022-12-20T11:45:03.403Z,55.01
2022-12-20T11:48:11.001Z,55.09
2022-12-20T11:51:16.767Z,55.43
2022-12-20T11:54:22.107Z,54.20
2022-12-20T11:57:26.206Z,54.92
2022-12-20T12:00:30.205Z,55.83
2022-12-20T12:03:34.391Z,56.38
2022-12-20T12:06:38.567Z,56.11
2022-12-20T12:09:42.554Z,55.96
2022-12-20T12:12:46.517Z,53.94
2022-12-20T12:15:50.476Z,54.93
2022-12-20T12:18:54.692Z,55.00
2022-12-20T12:21:58.594Z,53.41
2022-12-20T12:25:02.487Z,52.78
2022-12-20T12:28:06.709Z,52.78
2022-12-20T12:31:11.012Z,53.65
2022-12-20T12:34:15.097Z,54.38
2022-12-20T12:37:19.275Z,54.88
2022-12-20T12:40:23.021Z,52.85
2022-12-20T12:43:26.859Z,54.79
2022-12-20T12:46:31.009Z,56.54
2022-12-20T12:49:34.956Z,56.95
2022-12-20T12:52:38.839Z,57.55
2022-12-20T12:55:42.857Z,56.81
2022-12-20T12:58:49.244Z,56.05
2022-12-20T13:01:53.411Z,55.87
2022-12-20T13:04:57.371Z,54.31
2022-12-20T13:08:01.297Z,54.80
2022-12-20T13:11:05.282Z,55.00
2022-12-20T13:14:09.323Z,54.86
2022-12-20T13:17:16.200Z,54.04
2022-12-20T13:20:23.344Z,53.89
2022-12-20T13:23:27.561Z,53.34
2022-12-20T13:26:31.710Z,52.91
2022-12-20T13:29:36.970Z,51.90
2022-12-20T13:32:41.175Z,52.98
2022-12-20T13:35:45.322Z,52.10
2022-12-20T13:38:49.080Z,51.97
2022-12-20T13:41:53.199Z,52.69
2022-12-20T13:44:57.129Z,53.72
2022-12-20T13:48:05.126Z,53.16
2022-12-20T13:51:13.353Z,53.16
2022-12-20T13:54:21.770Z,51.75
2022-12-20T13:57:30.476Z,50.57
2022-12-20T14:00:34.325Z,52.74
2022-12-20T14:03:38.135Z,53.92
2022-12-20T14:06:42.095Z,53.93
2022-12-20T14:09:45.936Z,55.06
2022-12-20T14:12:51.765Z,53.03
2022-12-20T14:15:55.677Z,53.15
2022-12-20T14:18:59.828Z,53.91
2022-12-20T14:22:03.807Z,55.26
2022-12-20T14:25:07.713Z,53.58
2022-12-20T14:28:11.428Z,52.71
2022-12-20T14:31:15.353Z,51.85
2022-12-20T14:34:19.368Z,51.96
2022-12-20T14:37:23.353Z,50.93
2022-12-20T14:40:27.446Z,50.40
2022-12-20T14:43:31.597Z,51.74
2022-12-20T14:46:35.875Z,51.24
2022-12-20T14:49:40.261Z,50.73
2022-12-20T14:52:44.419Z,51.23
2022-12-20T14:55:48.447Z,50.86
2022-12-20T14:58:52.372Z,50.31
2022-12-20T15:01:56.537Z,50.16
2022-12-20T15:05:00.491Z,52.37
2022-12-20T15:08:04.510Z,51.50
2022-12-20T15:11:08.522Z,51.89
2022-12-20T15:14:12.524Z,50.93
2022-12-20T15:17:16.724Z,51.49
2022-12-20T15:20:20.675Z,51.19
2022-12-20T15:23:24.322Z,52.93
2022-12-20T15:26:28.326Z,51.38
2022-12-20T15:29:32.540Z,51.39
2022-12-20T15:32:36.761Z,50.34
2022-12-20T15:35:40.654Z,50.15
2022-12-20T15:39:14.898Z,50.71
2022-12-20T15:42:08.240Z,51.00
2022-12-20T15:45:12.242Z,53.02
2022-12-20T15:48:16.337Z,51.97
2022-12-20T15:51:20.455Z,51.26
2022-12-20T15:54:24.288Z,52.51
2022-12-20T15:57:28.228Z,51.65
2022-12-20T16:00:32.187Z,51.82
2022-12-20T16:03:36.461Z,51.91
2022-12-20T16:06:40.917Z,51.32
2022-12-20T16:09:44.927Z,51.47
2022-12-20T16:12:49.007Z,50.72
2022-12-20T16:15:53.087Z,51.12
2022-12-20T16:18:57.004Z,50.38
2022-12-20T16:22:00.932Z,49.96
2022-12-20T16:25:04.795Z,50.91
2022-12-20T16:28:08.741Z,52.38
2022-12-20T16:31:13.057Z,52.80
2022-12-20T16:34:17.025Z,52.94
2022-12-20T16:37:20.815Z,51.57
2022-12-20T16:40:24.933Z,53.98
2022-12-20T16:43:32.741Z,52.94
2022-12-20T16:46:39.229Z,53.26
2022-12-20T16:49:49.679Z,53.19
2022-12-20T16:52:56.137Z,53.14
2022-12-20T16:56:00.377Z,52.71
2022-12-20T16:59:22.121Z,53.87
2022-12-20T17:02:27.143Z,54.07
2022-12-20T17:05:30.937Z,54.36
2022-12-20T17:08:53.224Z,54.00
2022-12-20T17:11:57.312Z,53.88
2022-12-20T17:15:01.296Z,52.67
2022-12-20T17:18:05.450Z,51.54
2022-12-20T17:21:09.485Z,52.08
2022-12-20T17:24:13.355Z,52.01
2022-12-20T17:27:17.359Z,51.97
2022-12-20T17:30:21.488Z,52.75
2022-12-20T17:33:25.340Z,52.60
2022-12-20T17:36:35.897Z,53.04
2022-12-20T17:39:41.924Z,52.87
2022-12-20T17:42:45.841Z,52.42
2022-12-20T17:45:49.603Z,51.49
2022-12-20T17:48:53.509Z,51.89
2022-12-20T17:51:57.753Z,51.50
2022-12-20T17:55:01.726Z,51.12
2022-12-20T17:58:05.427Z,51.34
2022-12-20T18:01:09.401Z,51.10
2022-12-20T18:04:13.655Z,50.47
2022-12-20T18:07:17.979Z,49.81
2022-12-20T18:10:21.874Z,50.34
2022-12-20T18:13:25.771Z,50.32
2022-12-20T18:16:29.870Z,50.94
2022-12-20T18:19:33.716Z,50.48
2022-12-20T18:22:37.592Z,51.38
2022-12-20T18:25:41.429Z,50.75
2022-12-20T18:28:45.346Z,50.83
2022-12-20T18:31:49.466Z,50.89
2022-12-20T18:34:53.510Z,53.02
2022-12-20T18:37:58.346Z,53.26
2022-12-20T18:41:02.224Z,51.58
2022-12-20T18:44:06.394Z,52.50
2022-12-20T18:47:10.481Z,51.73
2022-12-20T18:50:14.413Z,53.36
2022-12-20T18:53:18.571Z,53.47
2022-12-20T18:56:22.625Z,54.19
2022-12-20T18:59:26.738Z,53.39
2022-12-20T19:02:31.583Z,54.33
2022-12-20T19:05:35.477Z,54.49
2022-12-20T19:08:39.338Z,54.32
2022-12-20T19:11:43.433Z,53.37
2022-12-20T19:14:47.868Z,52.46
2022-12-20T19:17:51.772Z,51.79
2022-12-20T19:20:55.813Z,53.20
2022-12-20T19:23:59.622Z,52.26
2022-12-20T19:27:03.762Z,54.85
2022-12-20T19:30:07.938Z,53.87
2022-12-20T19:33:11.801Z,52.98
2022-12-20T19:36:15.769Z,54.40
2022-12-20T19:39:19.683Z,53.93
2022-12-20T19:42:25.067Z,53.05
2022-12-20T19:45:29.296Z,54.29
2022-12-20T19:48:33.531Z,53.70
2022-12-20T19:51:37.669Z,53.61
2022-12-20T19:54:41.802Z,54.32
2022-12-20T19:57:46.104Z,53.49
2022-12-20T20:00:50.145Z,53.96
2022-12-20T20:03:54.249Z,53.50
2022-12-20T20:06:58.209Z,53.47
2022-12-20T20:10:02.061Z,52.97
2022-12-20T20:13:06.209Z,53.30
2022-12-20T20:16:10.373Z,53.44
2022-12-20T20:19:14.298Z,53.80
2022-12-20T20:22:22.859Z,53.41
2022-12-20T20:25:26.842Z,54.47
2022-12-20T20:28:33.996Z,53.64
2022-12-20T20:31:39.858Z,53.83
2022-12-20T20:34:43.843Z,52.94
2022-12-20T20:37:47.959Z,51.96
2022-12-20T20:40:51.799Z,53.55
2022-12-20T20:43:55.480Z,54.28
2022-12-20T20:46:59.626Z,53.86
2022-12-20T20:50:03.515Z,54.03
2022-12-20T20:53:07.548Z,53.93
2022-12-20T20:56:11.413Z,53.94
2022-12-20T20:59:17.733Z,54.45
2022-12-20T21:02:21.775Z,56.20
2022-12-20T21:08:49.304Z,56.48
2022-12-20T21:11:53.648Z,55.25
2022-12-20T21:15:24.517Z,55.29
2022-12-20T21:18:21.174Z,55.10
2022-12-20T21:21:25.246Z,54.53
2022-12-20T21:24:29.251Z,56.35
2022-12-20T21:27:33.212Z,56.68
2022-12-20T21:30:37.398Z,56.29
2022-12-20T21:33:41.299Z,56.66
2022-12-20T21:36:45.377Z,56.40
2022-12-20T21:39:49.404Z,55.95
2022-12-20T21:42:53.460Z,56.30
2022-12-20T21:45:57.575Z,55.65
2022-12-20T21:49:01.549Z,54.90
2022-12-20T21:52:05.679Z,54.66
2022-12-20T21:55:09.507Z,54.42
2022-12-20T21:58:13.482Z,55.06
2022-12-20T22:01:17.582Z,56.25
2022-12-20T22:04:21.411Z,56.58
2022-12-20T22:07:25.510Z,55.96
2022-12-20T22:10:29.622Z,57.01
2022-12-20T22:13:39.039Z,58.16
2022-12-20T22:16:45.743Z,57.24
2022-12-20T22:19:49.851Z,56.46
2022-12-20T22:22:53.635Z,56.07
2022-12-20T22:25:57.499Z,55.55
2022-12-20T22:29:01.610Z,55.97
2022-12-20T22:32:05.667Z,56.01
2022-12-20T22:35:11.528Z,55.18
2022-12-20T22:38:15.432Z,57.21
2022-12-20T22:41:19.488Z,56.06
2022-12-20T22:44:23.731Z,55.36
2022-12-20T22:47:39.783Z,55.42
2022-12-20T22:50:43.781Z,55.62
2022-12-20T22:53:47.937Z,55.62
2022-12-20T22:56:52.056Z,55.19
2022-12-20T22:59:56.171Z,55.57
2022-12-20T23:03:00.175Z,55.59
2022-12-20T23:06:03.978Z,56.57
2022-12-20T23:09:07.896Z,56.88
2022-12-20T23:12:11.801Z,57.40
2022-12-20T23:15:15.691Z,57.60
2022-12-20T23:18:19.395Z,57.71
2022-12-20T23:21:23.605Z,58.13
2022-12-20T23:24:27.751Z,59.16
2022-12-20T23:27:31.876Z,58.81
2022-12-20T23:30:35.708Z,59.02
2022-12-20T23:33:39.608Z,58.53
2022-12-20T23:36:43.777Z,58.86
2022-12-20T23:39:47.855Z,58.78
2022-12-20T23:42:51.782Z,58.39
2022-12-20T23:45:55.862Z,58.66
2022-12-20T23:48:59.852Z,58.86
2022-12-20T23:52:03.965Z,58.35
2022-12-20T23:55:08.207Z,57.49
2022-12-20T23:58:12.204Z,57.89
